Time;durP1;ratioP1;P1;durP2;ratioP2;P2;SDS_P1;SDS_P2;PMS_P1;PMS_P2;Temp;Humidity;BMP_temperature;BMP_pressure;BME280_temperature;BME280_humidity;BME280_pressure;Samples;Min_cycle;Max_cycle;Signal;HPM_P1;HPM_P2
2023/02/17 00:02:25;;;;;;;105.70;56.60;;;;;;;4.17;94.03;100967.95;104159;1279;97978;-78
2023/02/17 00:05:10;;;;;;;109.80;55.70;;;;;;;4.19;94.03;100969.38;104167;1279;98013;-77
2023/02/17 00:07:55;;;;;;;108.00;54.70;;;;;;;4.19;93.85;100968.27;103969;1276;101418;-77
2023/02/17 00:10:39;;;;;;;110.70;54.00;;;;;;;4.19;93.84;100966.83;103939;1276;99192;-76
2023/02/17 00:13:25;;;;;;;103.00;53.10;;;;;;;4.20;93.99;100960.95;103941;1279;98047;-77
2023/02/17 00:16:14;;;;;;;91.90;41.30;;;;;;;4.21;93.93;100961.41;103894;1277;97905;-78
2023/02/17 00:19:00;;;;;;;106.70;51.80;;;;;;;4.21;93.96;100960.48;103846;1279;98533;-77
2023/02/17 00:21:45;;;;;;;112.20;54.70;;;;;;;4.20;93.83;100957.71;103756;1277;102108;-78
2023/02/17 00:24:31;;;;;;;110.10;53.50;;;;;;;4.21;93.88;100956.27;103976;1279;99202;-77
2023/02/17 00:27:16;;;;;;;109.30;54.30;;;;;;;4.22;94.02;100954.59;104008;1282;98126;-77
2023/02/17 00:30:01;;;;;;;107.90;56.40;;;;;;;4.24;93.95;100955.27;103747;1281;98123;-79
2023/02/17 00:32:46;;;;;;;108.60;54.30;;;;;;;4.26;94.07;100948.25;104067;1276;98551;-77
2023/02/17 00:35:31;;;;;;;118.30;57.20;;;;;;;4.26;94.09;100946.77;103884;1283;101586;-77
2023/02/17 00:38:15;;;;;;;110.00;56.50;;;;;;;4.28;94.00;100944.69;103941;1279;99242;-78
2023/02/17 00:41:00;;;;;;;115.80;56.30;;;;;;;4.29;94.03;100940.54;103889;1281;98983;-78
2023/02/17 00:43:46;;;;;;;106.40;53.70;;;;;;;4.31;94.06;100938.95;103943;1290;97985;-78
2023/02/17 00:46:33;;;;;;;110.40;55.50;;;;;;;4.32;94.13;100936.18;103861;1279;98049;-78
2023/02/17 00:49:23;;;;;;;105.40;53.60;;;;;;;4.33;94.14;100934.70;104033;1279;101472;-77
2023/02/17 00:52:07;;;;;;;108.30;57.60;;;;;;;4.32;94.15;100932.58;104083;1277;100358;-76
2023/02/17 00:54:52;;;;;;;111.90;55.90;;;;;;;4.32;94.05;100933.33;103814;1282;99168;-76
2023/02/17 00:57:37;;;;;;;105.90;58.40;;;;;;;4.32;94.08;100935.23;103971;1280;99385;-78
2023/02/17 01:00:22;;;;;;;100.40;53.60;;;;;;;4.35;94.22;100928.84;103868;1283;98442;-77
2023/02/17 01:03:07;;;;;;;112.40;55.60;;;;;;;4.37;94.16;100927.56;104025;1275;102700;-79
2023/02/17 01:05:53;;;;;;;111.10;55.80;;;;;;;4.39;94.19;100928.07;103988;1279;99259;-79
2023/02/17 01:08:38;;;;;;;111.10;55.80;;;;;;;4.41;94.12;100926.51;103872;1277;98023;-76
2023/02/17 01:11:25;;;;;;;98.70;49.00;;;;;;;4.42;94.19;100924.79;103931;1279;97912;-77
2023/02/17 01:14:12;;;;;;;99.30;52.10;;;;;;;4.43;94.04;100919.23;103842;1279;98539;-77
2023/02/17 01:16:57;;;;;;;101.20;52.30;;;;;;;4.44;94.09;100906.98;103911;1279;102167;-76
2023/02/17 01:19:41;;;;;;;105.80;51.90;;;;;;;4.44;94.05;100906.73;103864;1279;99254;-76
2023/02/17 01:22:27;;;;;;;100.90;53.50;;;;;;;4.47;94.17;100907.41;104032;1276;99061;-80
2023/02/17 01:25:13;;;;;;;103.50;49.60;;;;;;;4.49;94.04;100908.47;104012;1277;98145;-77
2023/02/17 01:27:57;;;;;;;94.90;47.80;;;;;;;4.49;94.04;100908.73;103698;1276;98061;-78
2023/02/17 01:30:42;;;;;;;97.00;50.20;;;;;;;4.49;94.06;100907.54;103936;1290;102187;-79
2023/02/17 01:33:27;;;;;;;102.10;52.00;;;;;;;4.49;93.93;100903.60;103943;1279;99124;-77
2023/02/17 01:36:14;;;;;;;102.10;51.10;;;;;;;4.50;93.92;100900.16;103918;1279;99603;-77
2023/02/17 01:38:59;;;;;;;96.00;48.70;;;;;;;4.51;94.15;100901.54;104090;1277;98011;-77
2023/02/17 01:41:44;;;;;;;109.30;54.50;;;;;;;4.52;93.96;100896.68;103873;1298;98421;-79
2023/02/17 01:44:31;;;;;;;107.30;52.50;;;;;;;4.52;93.96;100898.24;103995;1279;101499;-77
2023/02/17 01:47:16;;;;;;;104.80;52.40;;;;;;;4.53;94.01;100895.84;103897;1276;100576;-77
2023/02/17 01:50:00;;;;;;;102.00;52.90;;;;;;;4.54;93.95;100890.60;103921;1282;98008;-78
2023/02/17 01:52:45;;;;;;;101.30;52.20;;;;;;;4.56;94.08;100889.75;103806;1282;97947;-77
2023/02/17 01:55:32;;;;;;;94.70;51.90;;;;;;;4.57;94.02;100887.48;103883;1283;98004;-76
2023/02/17 01:58:20;;;;;;;102.40;50.70;;;;;;;4.59;94.02;100888.94;103799;1282;102033;-78
2023/02/17 02:01:06;;;;;;;96.30;49.70;;;;;;;4.60;93.99;100885.11;103728;1282;100413;-77
2023/02/17 02:03:52;;;;;;;93.90;49.60;;;;;;;4.61;94.09;100888.34;103826;1283;99205;-78
2023/02/17 02:06:41;;;;;;;99.60;51.10;;;;;;;4.63;94.03;100893.33;103813;1282;98055;-76
2023/02/17 02:09:40;;;;;;;93.10;47.20;;;;;;;4.65;94.11;100892.59;103804;1276;99303;-77
2023/02/17 02:12:37;;;;;;;92.50;47.60;;;;;;;4.66;94.07;100892.14;103911;1280;101455;-78
2023/02/17 02:15:27;;;;;;;93.20;47.60;;;;;;;4.67;94.09;100888.52;103889;1280;100588;-78
2023/02/17 02:18:26;;;;;;;91.80;46.40;;;;;;;4.68;94.02;100883.81;103748;1282;98433;-78
2023/02/17 02:21:31;;;;;;;95.10;48.60;;;;;;;4.69;93.94;100879.32;103777;1279;99026;-78
2023/02/17 02:24:53;;;;;;;88.20;45.00;;;;;;;4.71;94.08;100874.15;104107;1276;99122;-78
2023/02/17 02:28:20;;;;;;;89.60;47.30;;;;;;;4.73;94.33;100868.90;103982;1279;102623;-78
2023/02/17 02:31:41;;;;;;;89.60;46.30;;;;;;;4.73;94.53;100864.13;103923;1279;100188;-77
2023/02/17 02:34:44;;;;;;;95.10;48.40;;;;;;;4.73;94.68;100862.20;103945;1279;98411;-77
2023/02/17 02:37:40;;;;;;;90.60;46.20;;;;;;;4.73;94.70;100856.33;103963;1277;97965;-79
2023/02/17 02:40:30;;;;;;;90.10;45.40;;;;;;;4.74;95.03;100851.86;104001;1278;99146;-78
2023/02/17 02:43:15;;;;;;;87.30;45.90;;;;;;;4.75;95.34;100849.29;103759;1277;102650;-77
2023/02/17 02:46:00;;;;;;;95.20;45.90;;;;;;;4.73;95.52;100853.12;103921;1279;99193;-78
2023/02/17 02:48:47;;;;;;;91.60;46.40;;;;;;;4.71;95.70;100858.09;103837;1282;98755;-78
2023/02/17 02:51:53;;;;;;;90.50;42.80;;;;;;;4.70;95.95;100855.69;103772;1282;98013;-78
2023/02/17 02:55:06;;;;;;;91.00;49.50;;;;;;;4.69;96.17;100850.83;104022;1282;98081;-78
2023/02/17 02:58:05;;;;;;;92.90;47.90;;;;;;;4.68;96.45;100850.06;103713;1282;111773;-76
2023/02/17 03:01:12;;;;;;;93.10;48.30;;;;;;;4.66;96.67;100840.34;103868;1277;100580;-75
2023/02/17 03:04:05;;;;;;;87.50;47.10;;;;;;;4.65;96.83;100837.92;104005;1279;97996;-78
2023/02/17 03:07:00;;;;;;;97.70;47.10;;;;;;;4.65;96.96;100842.52;103991;1279;97905;-77
2023/02/17 03:09:48;;;;;;;96.40;49.70;;;;;;;4.66;97.22;100842.78;103766;1279;97800;-78
2023/02/17 03:12:35;;;;;;;88.20;47.10;;;;;;;4.67;97.42;100849.08;103962;1277;101346;-77
2023/02/17 03:15:26;;;;;;;98.70;49.00;;;;;;;4.68;97.50;100841.76;104423;1282;100854;-82
2023/02/17 03:18:11;;;;;;;93.50;46.90;;;;;;;4.69;97.79;100849.80;103757;1283;97977;-77
2023/02/17 03:21:05;;;;;;;86.00;45.80;;;;;;;4.71;97.76;100851.52;103753;1277;98009;-76
2023/02/17 03:23:49;;;;;;;85.80;46.40;;;;;;;4.72;97.86;100847.42;103586;1276;98555;-78
2023/02/17 03:26:34;;;;;;;93.00;45.40;;;;;;;4.72;98.08;100843.65;103842;1281;101491;-78
2023/02/17 03:29:19;;;;;;;93.80;46.70;;;;;;;4.73;98.23;100838.13;103883;1280;100166;-78
2023/02/17 03:32:04;;;;;;;90.80;47.80;;;;;;;4.75;98.31;100838.42;103841;1277;98818;-79
2023/02/17 03:34:49;;;;;;;93.60;50.00;;;;;;;4.77;98.32;100836.30;103893;1290;98491;-79
2023/02/17 03:37:34;;;;;;;91.80;48.50;;;;;;;4.80;98.36;100836.95;104013;1279;98576;-77
2023/02/17 03:40:19;;;;;;;90.10;45.50;;;;;;;4.81;98.37;100838.41;103963;1282;101581;-78
2023/02/17 03:43:03;;;;;;;93.30;46.50;;;;;;;4.81;98.41;100836.59;103713;1281;100353;-78
2023/02/17 03:45:48;;;;;;;86.80;46.20;;;;;;;4.82;98.56;100835.80;103851;1277;98454;-79
2023/02/17 03:48:33;;;;;;;90.70;46.00;;;;;;;4.84;98.58;100838.83;103887;1282;98646;-78
2023/02/17 03:51:20;;;;;;;90.80;45.30;;;;;;;4.86;98.61;100839.72;103856;1279;98437;-76
2023/02/17 03:54:05;;;;;;;86.90;44.20;;;;;;;4.87;98.62;100842.23;103760;1277;101348;-78
2023/02/17 03:56:50;;;;;;;82.70;46.00;;;;;;;4.87;98.67;100830.56;103841;1279;100489;-77
2023/02/17 03:59:36;;;;;;;85.90;43.80;;;;;;;4.89;98.76;100822.29;103872;1277;97989;-78
2023/02/17 04:02:20;;;;;;;83.10;46.20;;;;;;;4.90;98.85;100832.23;103901;1279;98996;-77
2023/02/17 04:05:05;;;;;;;85.20;43.40;;;;;;;4.91;98.97;100837.48;103864;1276;98108;-79
2023/02/17 04:07:51;;;;;;;80.00;42.90;;;;;;;4.91;99.23;100829.99;103818;1283;101553;-76
2023/02/17 04:10:35;;;;;;;85.50;46.50;;;;;;;4.91;99.28;100829.30;103832;1279;99281;-77
2023/02/17 04:13:21;;;;;;;80.20;44.60;;;;;;;4.91;99.33;100830.02;103784;1291;98472;-77
2023/02/17 04:16:07;;;;;;;91.90;45.90;;;;;;;4.91;99.47;100825.08;103691;1280;99284;-79
2023/02/17 04:18:52;;;;;;;93.20;46.10;;;;;;;4.90;99.62;100832.20;103918;1277;97941;-77
2023/02/17 04:21:37;;;;;;;87.90;44.60;;;;;;;4.90;99.74;100823.37;103828;1282;101559;-77
2023/02/17 04:24:22;;;;;;;85.60;44.10;;;;;;;4.89;99.94;100817.98;103997;1288;99129;-78
2023/02/17 04:27:07;;;;;;;86.50;44.30;;;;;;;4.88;99.94;100817.59;103894;1289;99635;-78
2023/02/17 04:29:53;;;;;;;93.80;47.00;;;;;;;4.86;99.97;100816.34;103899;1279;98037;-76
2023/02/17 04:32:38;;;;;;;93.30;47.00;;;;;;;4.85;100.00;100797.71;103933;1282;97932;-77
2023/02/17 04:35:23;;;;;;;87.50;46.60;;;;;;;4.85;100.00;100795.19;103945;1277;101450;-78
2023/02/17 04:38:09;;;;;;;81.80;44.80;;;;;;;4.84;100.00;100802.38;103929;1279;100724;-78
2023/02/17 04:40:55;;;;;;;83.70;44.80;;;;;;;4.81;100.00;100800.33;103835;1280;98414;-78
2023/02/17 04:43:40;;;;;;;86.50;44.70;;;;;;;4.79;100.00;100801.95;103706;1280;98787;-78
2023/02/17 04:46:25;;;;;;;89.10;47.10;;;;;;;4.78;100.00;100801.73;103857;1289;97909;-76
2023/02/17 04:49:10;;;;;;;84.10;44.70;;;;;;;4.78;100.00;100800.54;103887;1276;101476;-78
2023/02/17 04:51:54;;;;;;;90.70;47.00;;;;;;;4.76;100.00;100796.63;103896;1289;99372;-77
2023/02/17 04:54:39;;;;;;;91.60;47.40;;;;;;;4.75;100.00;100790.51;103914;1280;98665;-78
2023/02/17 04:57:24;;;;;;;89.10;44.90;;;;;;;4.75;100.00;100790.48;103938;1290;98100;-78
2023/02/17 05:00:09;;;;;;;85.20;45.90;;;;;;;4.74;100.00;100785.00;103898;1276;98102;-76
2023/02/17 05:02:54;;;;;;;97.40;45.10;;;;;;;4.73;100.00;100779.55;104086;1279;101466;-77
2023/02/17 05:05:39;;;;;;;85.10;43.50;;;;;;;4.73;100.00;100773.90;103938;1279;100178;-76
2023/02/17 05:08:24;;;;;;;80.80;42.10;;;;;;;4.72;100.00;100770.98;103772;1281;98265;-77
2023/02/17 05:11:08;;;;;;;92.70;46.50;;;;;;;4.72;100.00;100767.26;103982;1277;98906;-77
2023/02/17 05:13:53;;;;;;;85.80;45.40;;;;;;;4.73;100.00;100759.57;103871;1280;97976;-76
2023/02/17 05:16:38;;;;;;;84.00;43.40;;;;;;;4.73;100.00;100757.25;103852;1276;102235;-78
2023/02/17 05:19:22;;;;;;;81.70;45.60;;;;;;;4.74;100.00;100763.14;103993;1280;99839;-78
2023/02/17 05:22:07;;;;;;;88.60;44.60;;;;;;;4.75;100.00;100760.42;103858;1276;99063;-76
2023/02/17 05:24:52;;;;;;;87.00;46.00;;;;;;;4.76;100.00;100754.70;103881;1279;99109;-77
2023/02/17 05:27:37;;;;;;;76.40;41.80;;;;;;;4.77;100.00;100758.42;103904;1290;97985;-78
2023/02/17 05:30:21;;;;;;;86.20;44.30;;;;;;;4.77;100.00;100756.85;104040;1276;102695;-77
2023/02/17 05:33:06;;;;;;;86.40;44.10;;;;;;;4.78;100.00;100760.34;103969;1279;99366;-76
2023/02/17 05:35:51;;;;;;;78.10;41.50;;;;;;;4.80;100.00;100760.48;104052;1277;97926;-81
2023/02/17 05:38:37;;;;;;;79.90;40.40;;;;;;;4.81;100.00;100760.24;104024;1280;97937;-76
2023/02/17 05:41:22;;;;;;;81.10;44.30;;;;;;;4.81;100.00;100761.11;103773;1280;98328;-77
2023/02/17 05:44:06;;;;;;;85.10;45.20;;;;;;;4.81;100.00;100755.95;103913;1279;101458;-77
2023/02/17 05:46:51;;;;;;;74.20;40.20;;;;;;;4.82;100.00;100756.23;103868;1284;99367;-77
2023/02/17 05:49:35;;;;;;;87.30;44.00;;;;;;;4.80;100.00;100756.39;103926;1284;97988;-80
2023/02/17 05:52:20;;;;;;;79.50;42.80;;;;;;;4.78;100.00;100747.57;103959;1282;97997;-77
2023/02/17 05:55:05;;;;;;;80.30;42.90;;;;;;;4.77;100.00;100742.91;104058;1282;96303;-77
2023/02/17 05:57:50;;;;;;;78.10;41.70;;;;;;;4.76;100.00;100741.55;103881;1277;101444;-77
2023/02/17 06:00:35;;;;;;;77.40;41.60;;;;;;;4.75;100.00;100744.71;103899;1280;99888;-76
2023/02/17 06:03:20;;;;;;;81.90;42.90;;;;;;;4.72;100.00;100745.50;103998;1276;98122;-78
2023/02/17 06:06:06;;;;;;;77.30;43.00;;;;;;;4.71;100.00;100742.42;103938;1283;98119;-78
2023/02/17 06:08:50;;;;;;;78.00;40.50;;;;;;;4.72;100.00;100744.83;104856;1277;98058;-81
2023/02/17 06:11:35;;;;;;;84.20;42.30;;;;;;;4.72;100.00;100747.10;104084;1280;102611;-82
2023/02/17 06:14:21;;;;;;;78.30;41.70;;;;;;;4.74;100.00;100752.45;104468;1283;100356;-83
2023/02/17 06:17:06;;;;;;;73.10;41.20;;;;;;;4.75;100.00;100748.98;104329;1283;97988;-83
2023/02/17 06:19:51;;;;;;;75.10;41.50;;;;;;;4.76;100.00;100749.23;104536;1279;98186;-84
2023/02/17 06:22:36;;;;;;;75.60;39.80;;;;;;;4.75;100.00;100743.10;104605;1274;97907;-82
2023/02/17 06:25:21;;;;;;;75.10;42.20;;;;;;;4.76;100.00;100737.20;104688;1279;101511;-81
2023/02/17 06:28:07;;;;;;;79.70;43.80;;;;;;;4.77;100.00;100734.22;104504;1277;99561;-82
2023/02/17 06:30:52;;;;;;;83.80;43.40;;;;;;;4.80;100.00;100732.17;104430;1283;98914;-81
2023/02/17 06:33:37;;;;;;;75.00;41.70;;;;;;;4.84;100.00;100724.75;104472;1281;98069;-82
2023/02/17 06:36:21;;;;;;;82.50;42.60;;;;;;;4.86;100.00;100721.16;104555;1277;97978;-82
2023/02/17 06:39:06;;;;;;;80.50;43.80;;;;;;;4.88;100.00;100725.39;104626;1276;101372;-82
2023/02/17 06:41:51;;;;;;;79.30;42.50;;;;;;;4.90;100.00;100731.73;104564;1277;100288;-82
2023/02/17 06:44:37;;;;;;;80.70;40.80;;;;;;;4.91;100.00;100741.17;104653;1279;100185;-86
2023/02/17 06:47:22;;;;;;;82.20;42.20;;;;;;;4.91;100.00;100740.48;104833;1276;97994;-84
2023/02/17 06:50:08;;;;;;;85.60;43.30;;;;;;;4.94;100.00;100738.45;104736;1276;97911;-84
2023/02/17 06:53:05;;;;;;;79.90;43.60;;;;;;;4.97;100.00;100732.11;105092;1280;101818;-84
2023/02/17 06:55:57;;;;;;;77.70;42.70;;;;;;;5.00;100.00;100719.77;104636;1277;99706;-84
2023/02/17 06:58:42;;;;;;;73.50;39.80;;;;;;;5.03;100.00;100717.16;104594;1282;97992;-84
2023/02/17 07:01:35;;;;;;;79.00;43.50;;;;;;;5.06;100.00;100714.96;104650;1276;98068;-86
2023/02/17 07:04:20;;;;;;;80.20;43.90;;;;;;;5.05;99.99;100715.73;104199;1276;96932;-76
2023/02/17 07:07:05;;;;;;;78.30;41.80;;;;;;;5.06;100.00;100718.95;103908;1282;101449;-77
2023/02/17 07:09:50;;;;;;;80.00;42.60;;;;;;;5.04;100.00;100718.13;103970;1279;99162;-76
2023/02/17 07:12:34;;;;;;;88.10;47.40;;;;;;;5.05;100.00;100715.41;103822;1283;98254;-76
2023/02/17 07:15:19;;;;;;;78.40;44.20;;;;;;;5.08;100.00;100712.83;103786;1280;98087;-77
2023/02/17 07:18:04;;;;;;;81.60;41.90;;;;;;;5.10;100.00;100707.24;103780;1279;98052;-78
2023/02/17 07:20:49;;;;;;;78.20;41.80;;;;;;;5.13;100.00;100709.30;103781;1286;102205;-76
2023/02/17 07:23:34;;;;;;;83.20;42.70;;;;;;;5.16;100.00;100708.14;103851;1289;99285;-77
2023/02/17 07:26:19;;;;;;;82.90;44.00;;;;;;;5.18;100.00;100711.29;104157;1279;98647;-77
2023/02/17 07:29:06;;;;;;;83.10;42.60;;;;;;;5.20;100.00;100711.40;103933;1280;98116;-78
2023/02/17 07:31:50;;;;;;;71.10;38.50;;;;;;;5.22;100.00;100710.16;103632;1279;98443;-76
2023/02/17 07:34:36;;;;;;;79.40;43.10;;;;;;;5.22;99.96;100712.21;103817;1280;103430;-77
2023/02/17 07:37:21;;;;;;;79.30;42.20;;;;;;;5.24;99.94;100711.88;103786;1280;100451;-77
2023/02/17 07:40:06;;;;;;;80.00;41.00;;;;;;;5.26;99.72;100716.11;103807;1280;98984;-77
2023/02/17 07:42:51;;;;;;;76.30;39.70;;;;;;;5.26;99.54;100712.38;104189;1276;98131;-81
2023/02/17 07:45:36;;;;;;;78.30;42.10;;;;;;;5.27;99.53;100711.42;104456;1276;99308;-77
2023/02/17 07:48:21;;;;;;;75.10;39.00;;;;;;;5.31;99.62;100712.29;104175;1276;102726;-77
2023/02/17 07:51:16;;;;;;;71.80;38.40;;;;;;;5.35;99.59;100711.02;103979;1277;99114;-76
2023/02/17 07:54:01;;;;;;;64.30;36.00;;;;;;;5.38;99.44;100712.42;104096;1277;99287;-77
2023/02/17 07:56:47;;;;;;;75.30;39.50;;;;;;;5.41;99.30;100706.84;104331;1280;98483;-79
2023/02/17 07:59:32;;;;;;;69.80;38.50;;;;;;;5.45;99.18;100700.77;105034;1276;97997;-85
2023/02/17 08:02:18;;;;;;;70.60;38.10;;;;;;;5.48;99.00;100696.33;104745;1280;103293;-85
2023/02/17 08:05:05;;;;;;;66.90;37.30;;;;;;;5.52;98.65;100693.89;104992;1276;99134;-87
2023/02/17 08:13:17;;;;;;;62.60;34.00;;;;;;;5.55;98.77;100695.70;104408;1282;98037;-81
2023/02/17 08:14:07;;;;;;;70.50;38.30;;;;;;;5.62;98.60;100688.84;105326;1277;97873;-88
2023/02/17 08:16:56;;;;;;;74.20;38.60;;;;;;;5.64;98.54;100682.91;105148;1276;102826;-82
2023/02/17 08:19:44;;;;;;;68.00;37.50;;;;;;;5.67;98.63;100681.35;103933;1279;99174;-87
2023/02/17 08:22:29;;;;;;;69.20;37.90;;;;;;;5.71;98.65;100676.20;105057;1282;98209;-77
2023/02/17 08:25:14;;;;;;;109.00;52.60;;;;;;;5.73;98.47;100678.10;104417;1276;97902;-78
2023/02/17 08:27:59;;;;;;;87.50;45.50;;;;;;;5.75;98.63;100675.40;104163;1277;97911;-75
2023/02/17 08:30:44;;;;;;;76.40;43.70;;;;;;;5.76;98.57;100673.91;104166;1276;101412;-76
2023/02/17 08:33:29;;;;;;;71.60;42.20;;;;;;;5.78;98.91;100674.11;104209;1276;99281;-82
2023/02/17 08:36:14;;;;;;;66.40;39.20;;;;;;;5.81;99.00;100676.65;104402;1275;99285;-80
2023/02/17 08:39:00;;;;;;;66.90;36.90;;;;;;;5.82;99.12;100674.14;103549;1288;98094;-76
2023/02/17 08:41:45;;;;;;;70.30;41.40;;;;;;;5.83;99.15;100671.98;103832;1277;98568;-74
2023/02/17 08:44:51;;;;;;;66.20;35.70;;;;;;;5.84;99.19;100668.91;104173;1277;102233;-84
2023/02/17 08:47:37;;;;;;;78.50;42.20;;;;;;;5.84;99.22;100669.95;104863;1277;101364;-82
2023/02/17 08:50:22;;;;;;;70.90;40.30;;;;;;;5.86;99.75;100671.20;104928;1276;99094;-81
2023/02/17 08:53:07;;;;;;;74.70;39.40;;;;;;;5.88;99.91;100671.14;104518;1276;98004;-84
2023/02/17 08:55:52;;;;;;;83.40;44.20;;;;;;;5.89;99.79;100672.98;104762;1274;98096;-83
2023/02/17 08:58:37;;;;;;;73.30;41.20;;;;;;;5.90;99.92;100673.23;104724;1282;101959;-87
2023/02/17 09:01:23;;;;;;;68.40;37.70;;;;;;;5.92;99.91;100672.02;105486;1275;99108;-87
2023/02/17 09:04:10;;;;;;;67.30;36.20;;;;;;;5.92;99.94;100669.06;105165;1277;99002;-88
2023/02/17 09:07:02;;;;;;;71.00;42.00;;;;;;;5.96;99.97;100671.21;105371;1275;98000;-89
2023/02/17 09:09:49;;;;;;;76.30;45.40;;;;;;;5.98;100.00;100674.02;105222;1276;98554;-86
2023/02/17 09:12:34;;;;;;;79.00;42.90;;;;;;;6.02;100.00;100669.36;105209;1276;102585;-92
2023/02/17 09:15:40;;;;;;;70.10;41.60;;;;;;;6.06;100.00;100666.10;105269;1276;99114;-93
2023/02/17 09:18:25;;;;;;;76.40;41.00;;;;;;;6.10;100.00;100659.84;104487;1276;98034;-88
2023/02/17 09:21:12;;;;;;;71.70;38.90;;;;;;;6.12;100.00;100651.41;104836;1282;97980;-79
2023/02/17 09:23:57;;;;;;;61.10;34.30;;;;;;;6.15;100.00;100650.56;104376;1282;98433;-78
2023/02/17 09:26:42;;;;;;;64.80;38.40;;;;;;;6.17;100.00;100645.56;104396;1280;101524;-83
2023/02/17 09:29:30;;;;;;;66.50;37.40;;;;;;;6.19;100.00;100640.05;104857;1279;100362;-84
2023/02/17 09:32:15;;;;;;;64.70;35.10;;;;;;;6.22;100.00;100635.31;104876;1277;100053;-86
2023/02/17 09:39:08;;;;;;;;;;;;;;;;;;;;;
2023/02/17 09:42:17;;;;;;;65.00;34.90;;;;;;;6.32;100.00;100626.48;105481;1276;101328;-87
2023/02/17 09:45:20;;;;;;;62.20;34.40;;;;;;;6.34;100.00;100618.92;104885;1275;99115;-83
2023/02/17 09:48:10;;;;;;;63.20;34.40;;;;;;;6.32;100.00;100612.35;104518;1280;98461;-84
2023/02/17 09:51:14;;;;;;;61.80;33.50;;;;;;;6.29;100.00;100606.93;104696;1282;98065;-83
2023/02/17 09:54:09;;;;;;;59.40;33.20;;;;;;;6.29;100.00;100607.89;105008;1276;97877;-84
2023/02/17 09:57:09;;;;;;;61.70;33.70;;;;;;;6.28;100.00;100605.70;104729;1279;102222;-84
2023/02/17 10:00:01;;;;;;;68.10;37.40;;;;;;;6.27;100.00;100603.12;104904;1275;100582;-82
2023/02/17 10:03:35;;;;;;;;;;;;;;;;;;;;;
2023/02/17 10:07:01;;;;;;;62.60;34.30;;;;;;;6.28;100.00;100605.09;105398;1276;97991;-87
2023/02/17 10:10:27;;;;;;;;;;;;;;;;;;;;;
2023/02/17 10:13:20;;;;;;;66.40;34.30;;;;;;;6.28;100.00;100598.04;103973;1282;104024;-78
2023/02/17 10:16:13;;;;;;;62.00;36.60;;;;;;;6.29;100.00;100595.61;103980;1276;99035;-78
2023/02/17 10:19:11;;;;;;;66.00;35.20;;;;;;;6.30;100.00;100594.45;103985;1279;98877;-77
2023/02/17 10:22:04;;;;;;;60.10;35.20;;;;;;;6.31;100.00;100593.96;104027;1280;98073;-78
2023/02/17 10:24:49;;;;;;;60.20;33.00;;;;;;;6.34;100.00;100587.83;103985;1277;98481;-76
2023/02/17 10:28:06;;;;;;;63.90;36.40;;;;;;;6.35;100.00;100585.17;104148;1276;102722;-79
2023/02/17 10:31:01;;;;;;;59.00;32.80;;;;;;;6.37;100.00;100577.17;103968;1279;99256;-78
2023/02/17 10:33:59;;;;;;;64.50;36.40;;;;;;;6.40;100.00;100568.40;104093;1276;98065;-79
2023/02/17 10:36:58;;;;;;;64.60;36.30;;;;;;;6.42;100.00;100557.83;104009;1277;98020;-77
2023/02/17 10:39:50;;;;;;;57.80;33.80;;;;;;;6.45;100.00;100551.16;104156;1279;98016;-79
2023/02/17 10:42:37;;;;;;;63.30;34.50;;;;;;;6.47;100.00;100543.31;104048;1279;101456;-77
2023/02/17 10:45:29;;;;;;;60.60;34.40;;;;;;;6.49;100.00;100543.88;103965;1276;99201;-77
2023/02/17 10:48:21;;;;;;;69.50;36.50;;;;;;;6.51;100.00;100540.73;103952;1279;97978;-78
2023/02/17 10:51:06;;;;;;;68.30;37.00;;;;;;;6.54;100.00;100530.66;103885;1279;97989;-76
2023/02/17 10:53:57;;;;;;;64.10;35.90;;;;;;;6.59;100.00;100522.19;103792;1282;98824;-79
2023/02/17 10:56:49;;;;;;;68.90;38.00;;;;;;;6.62;100.00;100518.64;103851;1277;101355;-78
2023/02/17 10:59:40;;;;;;;64.90;35.60;;;;;;;6.66;100.00;100513.09;103979;1279;99188;-77
2023/02/17 11:02:36;;;;;;;67.70;35.80;;;;;;;6.69;100.00;100504.55;104274;1279;98820;-78
2023/02/17 11:05:31;;;;;;;63.70;35.90;;;;;;;6.70;100.00;100494.66;103890;1276;98017;-77
2023/02/17 11:08:40;;;;;;;65.00;34.50;;;;;;;6.73;100.00;100485.20;103542;1282;98538;-78
2023/02/17 11:11:29;;;;;;;63.30;37.60;;;;;;;6.77;100.00;100477.60;103776;1279;101481;-78
2023/02/17 11:14:22;;;;;;;65.00;35.20;;;;;;;6.82;100.00;100472.11;103842;1276;100379;-78
2023/02/17 11:17:21;;;;;;;58.70;32.90;;;;;;;6.86;100.00;100459.54;103857;1279;97901;-77
2023/02/17 11:20:28;;;;;;;63.90;35.60;;;;;;;6.89;100.00;100450.76;103791;1277;97963;-76
2023/02/17 11:23:23;;;;;;;68.50;36.50;;;;;;;6.90;100.00;100442.42;103771;1276;98085;-77
2023/02/17 11:26:15;;;;;;;67.50;36.00;;;;;;;6.91;100.00;100438.41;103892;1276;101462;-77
2023/02/17 11:29:08;;;;;;;68.40;36.60;;;;;;;6.93;100.00;100437.64;103936;1282;100600;-78
2023/02/17 11:32:12;;;;;;;65.20;36.00;;;;;;;6.95;100.00;100436.40;104014;1277;98662;-77
2023/02/17 11:35:02;;;;;;;67.10;37.50;;;;;;;6.96;100.00;100429.02;103841;1279;97994;-77
2023/02/17 11:37:47;;;;;;;64.60;36.50;;;;;;;6.96;100.00;100426.15;103980;1279;98766;-77
2023/02/17 11:40:32;;;;;;;68.70;37.50;;;;;;;6.95;100.00;100422.75;103933;1276;101423;-76
2023/02/17 11:43:18;;;;;;;59.20;34.00;;;;;;;6.94;100.00;100421.46;103674;1276;99386;-78
2023/02/17 11:46:21;;;;;;;67.20;37.50;;;;;;;6.92;100.00;100413.65;103969;1277;99061;-77
2023/02/17 11:49:52;;;;;;;68.10;37.00;;;;;;;6.90;100.00;100407.79;103956;1277;97952;-78
2023/02/17 11:52:46;;;;;;;68.30;36.70;;;;;;;6.88;100.00;100396.52;103862;1279;97979;-77
2023/02/17 11:55:45;;;;;;;71.00;38.10;;;;;;;6.89;100.00;100385.95;103854;1279;102288;-76
2023/02/17 11:59:06;;;;;;;60.10;34.10;;;;;;;6.91;100.00;100377.73;103865;1279;99152;-78
2023/02/17 12:02:28;;;;;;;60.20;35.10;;;;;;;6.93;100.00;100367.77;103771;1276;97998;-77
2023/02/17 12:05:48;;;;;;;58.90;34.70;;;;;;;6.93;100.00;100358.14;103866;1279;98507;-78
2023/02/17 12:08:49;;;;;;;60.90;33.20;;;;;;;6.95;100.00;100348.35;103724;1276;98046;-76
2023/02/17 12:11:48;;;;;;;59.40;33.30;;;;;;;6.98;100.00;100338.73;103986;1279;102099;-78
2023/02/17 12:14:54;;;;;;;55.80;31.70;;;;;;;7.01;100.00;100332.23;104035;1279;100466;-79
2023/02/17 12:17:47;;;;;;;56.60;32.30;;;;;;;7.03;100.00;100325.98;104215;1279;98022;-77
2023/02/17 12:20:49;;;;;;;58.60;32.70;;;;;;;7.04;100.00;100311.14;104060;1276;98014;-79
2023/02/17 12:24:47;;;;;;;55.50;31.20;;;;;;;7.04;100.00;100299.41;104388;1279;98544;-74
2023/02/17 12:27:46;;;;;;;50.00;29.10;;;;;;;7.05;100.00;100299.98;105214;1276;102382;-86
2023/02/17 12:31:01;;;;;;;54.70;28.80;;;;;;;7.07;100.00;100296.29;105257;1274;100582;-89
2023/02/17 12:34:02;;;;;;;53.50;28.40;;;;;;;7.08;100.00;100286.22;105114;1279;98110;-88
2023/02/17 12:37:07;;;;;;;;;;;;;;;7.09;100.00;100279.66;104822;1274;97960;-88
2023/02/17 12:40:03;;;;;;;49.80;28.30;;;;;;;7.08;100.00;100274.80;105015;1279;98818;-86
2023/02/17 12:43:00;;;;;;;50.00;28.30;;;;;;;7.09;100.00;100270.77;104869;1280;102644;-87
2023/02/17 12:45:50;;;;;;;50.00;27.20;;;;;;;7.11;100.00;100269.73;104961;1277;99137;-84
2023/02/17 12:49:43;;;;;;;43.90;26.30;;;;;;;7.11;100.00;100275.89;104790;1276;98164;-84
2023/02/17 12:52:38;;;;;;;53.20;28.90;;;;;;;7.13;100.00;100272.35;104998;1276;96591;-78
2023/02/17 12:55:49;;;;;;;48.00;30.10;;;;;;;7.13;100.00;100274.24;104167;1275;100058;-83
2023/02/17 12:58:35;;;;;;;53.40;29.70;;;;;;;7.13;100.00;100260.77;104276;1280;101446;-83
2023/02/17 13:01:28;;;;;;;58.40;32.10;;;;;;;7.14;100.00;100251.41;104871;1279;99117;-86